createdAt,value
2022-09-28T00:00:18.024Z,10.94
2022-09-28T00:02:45.911Z,10.72
2022-09-28T00:05:13.967Z,10.65
2022-09-28T00:07:42.085Z,10.68
2022-09-28T00:10:10.355Z,10.60
2022-09-28T00:12:37.998Z,10.65
2022-09-28T00:15:06.108Z,10.83
2022-09-28T00:17:34.345Z,10.72
2022-09-28T00:20:05.571Z,10.90
2022-09-28T00:22:33.262Z,10.79
2022-09-28T00:25:00.901Z,10.98
2022-09-28T00:27:28.697Z,11.02
2022-09-28T00:29:56.317Z,11.00
2022-09-28T00:32:25.188Z,11.02
2022-09-28T00:34:53.195Z,10.87
2022-09-28T00:37:20.922Z,10.95
2022-09-28T00:39:49.359Z,10.95
2022-09-28T00:42:21.597Z,10.72
2022-09-28T00:44:54.378Z,10.76
2022-09-28T00:47:26.567Z,10.64
2022-09-28T00:49:58.490Z,10.68
2022-09-28T00:52:32.749Z,10.70
2022-09-28T00:55:04.507Z,10.76
2022-09-28T00:57:33.906Z,10.82
2022-09-28T01:00:04.088Z,10.87
2022-09-28T01:02:31.875Z,10.89
2022-09-28T01:05:05.751Z,10.84
2022-09-28T01:07:34.760Z,10.95
2022-09-28T01:10:04.697Z,10.82
2022-09-28T01:12:32.501Z,10.84
2022-09-28T01:15:01.928Z,10.79
2022-09-28T01:18:10.245Z,10.69
2022-09-28T01:20:57.338Z,10.65
2022-09-28T01:23:45.995Z,10.74
2022-09-28T01:26:46.180Z,10.82
2022-09-28T01:29:46.657Z,10.67
2022-09-28T01:32:50.482Z,10.74
2022-09-28T01:35:30.010Z,10.60
2022-09-28T01:38:30.013Z,10.59
2022-09-28T01:41:00.534Z,10.66
2022-09-28T01:43:30.230Z,10.69
2022-09-28T01:46:16.604Z,10.72
2022-09-28T01:49:09.621Z,10.77
2022-09-28T01:52:06.513Z,10.70
2022-09-28T01:55:02.770Z,10.73
2022-09-28T01:57:42.504Z,10.72
2022-09-28T02:00:15.289Z,10.64
2022-09-28T02:02:54.615Z,10.46
2022-09-28T02:05:34.097Z,10.50
2022-09-28T02:08:11.321Z,10.46
2022-09-28T02:11:24.816Z,10.34
2022-09-28T02:14:04.053Z,10.28
2022-09-28T02:16:41.789Z,10.42
2022-09-28T02:19:23.922Z,10.39
2022-09-28T02:22:34.293Z,10.37
2022-09-28T02:25:26.473Z,10.30
2022-09-28T02:28:04.681Z,10.42
2022-09-28T02:30:36.423Z,10.47
2022-09-28T02:33:20.089Z,10.55
2022-09-28T02:35:48.614Z,10.63
2022-09-28T02:38:17.907Z,10.53
2022-09-28T02:41:26.269Z,10.35
2022-09-28T02:44:04.095Z,10.30
2022-09-28T02:46:48.094Z,10.22
2022-09-28T02:49:44.481Z,10.17
2022-09-28T02:52:54.641Z,10.05
2022-09-28T02:55:40.392Z,10.09
2022-09-28T02:58:26.439Z,10.25
2022-09-28T03:01:25.396Z,10.17
2022-09-28T03:04:28.233Z,10.25
2022-09-28T03:07:25.744Z,10.12
2022-09-28T03:10:06.059Z,10.11
2022-09-28T03:12:35.031Z,10.10
2022-09-28T03:15:11.292Z,10.03
2022-09-28T03:17:40.357Z,10.12
2022-09-28T03:20:11.687Z,10.16
2022-09-28T03:22:39.675Z,10.16
2022-09-28T03:25:08.797Z,9.95
2022-09-28T03:27:39.449Z,9.96
2022-09-28T03:30:09.351Z,10.03
2022-09-28T03:32:38.768Z,9.95
2022-09-28T03:35:09.922Z,10.11
2022-09-28T03:37:37.592Z,10.08
2022-09-28T03:40:06.907Z,10.06
2022-09-28T03:42:37.356Z,10.08
2022-09-28T03:45:06.106Z,9.98
2022-09-28T03:47:34.146Z,10.00
2022-09-28T03:50:02.220Z,9.94
2022-09-28T03:52:29.813Z,10.10
2022-09-28T03:54:58.110Z,10.01
2022-09-28T03:57:25.858Z,10.11
2022-09-28T03:59:53.742Z,10.02
2022-09-28T04:02:21.406Z,10.04
2022-09-28T04:04:49.223Z,9.99
2022-09-28T04:07:16.935Z,9.94
2022-09-28T04:09:45.078Z,9.94
2022-09-28T04:12:14.197Z,9.89
2022-09-28T04:14:41.963Z,9.89
2022-09-28T04:17:09.816Z,9.87
2022-09-28T04:19:38.049Z,9.74
2022-09-28T04:22:19.028Z,9.73
2022-09-28T04:24:46.745Z,9.72
2022-09-28T04:27:33.194Z,9.58
2022-09-28T04:30:02.413Z,9.62
2022-09-28T04:32:31.925Z,9.63
2022-09-28T04:35:00.276Z,9.58
2022-09-28T04:37:27.972Z,9.57
2022-09-28T04:39:55.683Z,9.57
2022-09-28T04:42:23.400Z,9.38
2022-09-28T04:44:51.817Z,9.49
2022-09-28T04:47:19.565Z,9.49
2022-09-28T04:50:13.750Z,9.48
2022-09-28T04:53:02.163Z,9.48
2022-09-28T04:55:32.582Z,9.49
2022-09-28T04:58:03.368Z,9.47
2022-09-28T05:00:35.644Z,9.44
2022-09-28T05:03:23.597Z,9.37
2022-09-28T05:06:07.167Z,9.41
2022-09-28T05:08:42.998Z,9.28
2022-09-28T05:11:13.044Z,9.25
2022-09-28T05:13:45.897Z,9.28
2022-09-28T05:16:17.311Z,9.31
2022-09-28T05:19:06.441Z,9.37
2022-09-28T05:21:34.332Z,9.34
2022-09-28T05:24:07.320Z,9.26
2022-09-28T05:26:36.893Z,9.26
2022-09-28T05:29:06.969Z,9.30
2022-09-28T05:31:40.543Z,9.16
2022-09-28T05:34:16.155Z,9.25
2022-09-28T05:36:45.822Z,9.24
2022-09-28T05:39:13.494Z,9.19
2022-09-28T05:41:41.115Z,9.27
2022-09-28T05:44:08.738Z,9.32
2022-09-28T05:46:37.075Z,9.31
2022-09-28T05:49:04.949Z,9.30
2022-09-28T05:51:32.544Z,9.24
2022-09-28T05:54:05.482Z,9.10
2022-09-28T05:56:34.380Z,9.21
2022-09-28T05:59:06.242Z,9.11
2022-09-28T06:01:34.206Z,9.21
2022-09-28T06:04:02.931Z,9.23
2022-09-28T06:06:31.980Z,9.13
2022-09-28T06:08:59.696Z,9.13
2022-09-28T06:11:48.459Z,9.12
2022-09-28T06:14:26.321Z,9.12
2022-09-28T06:16:54.056Z,9.16
2022-09-28T06:19:21.926Z,9.15
2022-09-28T06:22:05.164Z,9.20
2022-09-28T06:24:36.858Z,9.18
2022-09-28T06:27:04.552Z,9.20
2022-09-28T06:29:32.173Z,9.11
2022-09-28T06:31:59.900Z,9.23
2022-09-28T06:34:27.587Z,9.16
2022-09-28T06:36:55.337Z,9.24
2022-09-28T06:39:23.532Z,9.22
2022-09-28T06:41:51.596Z,9.33
2022-09-28T06:44:22.251Z,9.38
2022-09-28T06:47:28.142Z,9.35
2022-09-28T06:50:12.334Z,9.43
2022-09-28T06:53:13.937Z,9.52
2022-09-28T06:56:11.482Z,9.61
2022-09-28T06:58:39.365Z,9.69
2022-09-28T07:01:07.825Z,9.76
2022-09-28T07:03:43.713Z,10.00
2022-09-28T07:06:31.533Z,10.14
2022-09-28T07:09:32.330Z,10.22
2022-09-28T07:12:16.825Z,10.38
2022-09-28T07:14:57.490Z,10.40
2022-09-28T07:17:28.170Z,10.58
2022-09-28T07:20:06.988Z,10.67
2022-09-28T07:22:43.865Z,10.76
2022-09-28T07:25:18.082Z,10.87
2022-09-28T07:28:09.862Z,10.93
2022-09-28T07:30:57.872Z,10.99
2022-09-28T07:33:51.178Z,11.03
2022-09-28T07:36:57.365Z,10.91
2022-09-28T07:39:25.328Z,11.09
2022-09-28T07:41:56.695Z,11.03
2022-09-28T07:44:25.115Z,11.09
2022-09-28T07:46:56.886Z,11.12
2022-09-28T07:49:44.733Z,11.03
2022-09-28T07:52:18.550Z,11.09
2022-09-28T07:55:07.285Z,11.02
2022-09-28T07:58:05.642Z,11.08
2022-09-28T08:00:51.754Z,11.01
2022-09-28T08:03:23.520Z,11.16
2022-09-28T08:05:51.325Z,11.26
2022-09-28T08:08:20.298Z,11.39
2022-09-28T08:10:48.558Z,11.51
2022-09-28T08:13:34.924Z,11.58
2022-09-28T08:16:40.383Z,11.77
2022-09-28T08:19:49.234Z,11.64
2022-09-28T08:22:19.016Z,11.50
2022-09-28T08:24:47.929Z,11.43
2022-09-28T08:27:17.181Z,11.60
2022-09-28T08:29:45.220Z,11.68
2022-09-28T08:32:38.975Z,11.85
2022-09-28T08:35:26.818Z,12.04
2022-09-28T08:38:11.260Z,12.24
2022-09-28T08:41:33.170Z,12.44
2022-09-28T08:44:24.095Z,12.53
2022-09-28T08:47:30.268Z,12.75
2022-09-28T08:50:22.971Z,12.91
2022-09-28T08:54:11.890Z,13.16
2022-09-28T08:56:54.725Z,13.18
2022-09-28T08:59:41.140Z,13.15
2022-09-28T09:02:36.755Z,13.10
2022-09-28T09:05:38.603Z,13.35
2022-09-28T09:08:28.702Z,13.41
2022-09-28T09:11:22.691Z,13.57
2022-09-28T09:14:04.617Z,13.63
2022-09-28T09:17:00.038Z,13.72
2022-09-28T09:20:05.306Z,13.53
2022-09-28T09:22:59.827Z,13.62
2022-09-28T09:25:49.025Z,13.78
2022-09-28T09:28:55.513Z,13.93
2022-09-28T09:31:50.227Z,13.82
2022-09-28T09:34:55.804Z,13.92
2022-09-28T09:38:02.647Z,14.15
2022-09-28T09:40:57.819Z,14.34
2022-09-28T09:44:33.665Z,14.54
2022-09-28T09:47:48.943Z,14.02
2022-09-28T09:50:32.049Z,13.77
2022-09-28T09:53:06.877Z,13.47
2022-09-28T09:55:44.314Z,13.35
2022-09-28T09:58:46.254Z,13.23
2022-09-28T10:01:40.653Z,13.04
2022-09-28T10:04:40.852Z,12.87
2022-09-28T10:07:43.483Z,13.04
2022-09-28T10:10:26.182Z,13.46
2022-09-28T10:12:57.908Z,13.73
2022-09-28T10:15:35.425Z,13.79
2022-09-28T10:18:19.409Z,14.10
2022-09-28T10:21:06.083Z,14.32
2022-09-28T10:24:37.416Z,14.43
2022-09-28T10:27:36.765Z,14.36
2022-09-28T10:30:23.321Z,14.53
2022-09-28T10:32:58.990Z,14.53
2022-09-28T10:35:41.449Z,14.75
2022-09-28T10:38:18.979Z,14.99
2022-09-28T10:41:11.899Z,15.11
2022-09-28T10:44:06.542Z,14.82
2022-09-28T10:47:04.195Z,14.53
2022-09-28T10:49:46.964Z,14.21
2022-09-28T10:52:36.951Z,13.99
2022-09-28T10:55:28.479Z,14.15
2022-09-28T10:57:56.591Z,14.58
2022-09-28T11:00:44.341Z,14.78
2022-09-28T11:03:29.105Z,15.02
2022-09-28T11:06:07.701Z,15.05
2022-09-28T11:08:44.329Z,14.77
2022-09-28T11:11:21.685Z,14.57
2022-09-28T11:14:01.352Z,14.48
2022-09-28T11:16:36.012Z,14.30
2022-09-28T11:19:28.201Z,14.17
2022-09-28T11:21:55.944Z,14.15
2022-09-28T11:24:31.875Z,14.33
2022-09-28T11:27:03.039Z,14.51
2022-09-28T11:29:46.134Z,14.40
2022-09-28T11:32:42.561Z,14.40
2022-09-28T11:36:05.498Z,14.46
2022-09-28T11:38:55.319Z,14.40
2022-09-28T11:42:14.224Z,14.38
2022-09-28T11:44:48.560Z,14.28
2022-09-28T11:47:29.444Z,14.34
2022-09-28T11:50:24.026Z,14.55
2022-09-28T11:52:58.427Z,14.83
2022-09-28T11:55:45.752Z,14.98
2022-09-28T11:58:27.191Z,15.21
2022-09-28T12:01:04.394Z,15.15
2022-09-28T12:03:55.889Z,15.09
2022-09-28T12:06:36.766Z,14.97
2022-09-28T12:09:16.594Z,14.74
2022-09-28T12:12:10.438Z,14.81
2022-09-28T12:14:47.315Z,14.62
2022-09-28T12:17:23.333Z,14.70
2022-09-28T12:20:14.681Z,14.68
2022-09-28T12:23:08.344Z,14.55
2022-09-28T12:25:51.910Z,14.38
2022-09-28T12:28:39.118Z,14.53
2022-09-28T12:31:26.671Z,14.47
2022-09-28T12:33:54.388Z,14.42
2022-09-28T12:36:56.432Z,14.42
2022-09-28T12:39:57.989Z,14.37
2022-09-28T12:42:53.106Z,14.50
2022-09-28T12:46:06.658Z,14.71
2022-09-28T12:49:21.667Z,14.67
2022-09-28T12:52:02.443Z,14.64
2022-09-28T12:54:56.117Z,14.85
2022-09-28T12:57:44.545Z,15.03
2022-09-28T13:00:22.723Z,14.84
2022-09-28T13:03:02.340Z,14.95
2022-09-28T13:06:05.901Z,14.84
2022-09-28T13:09:07.458Z,14.62
2022-09-28T13:12:02.083Z,14.55
2022-09-28T13:15:27.402Z,14.70
2022-09-28T13:18:15.342Z,14.52
2022-09-28T13:21:01.697Z,14.47
2022-09-28T13:23:39.303Z,14.64
2022-09-28T13:26:17.315Z,14.62
2022-09-28T13:28:47.045Z,14.64
2022-09-28T13:31:21.731Z,14.61
2022-09-28T13:33:50.331Z,14.48
2022-09-28T13:36:32.758Z,14.60
2022-09-28T13:39:01.060Z,14.37
2022-09-28T13:41:40.532Z,14.32
2022-09-28T13:44:11.640Z,14.30
2022-09-28T13:46:55.437Z,14.17
2022-09-28T13:49:47.537Z,14.13
2022-09-28T13:52:43.930Z,14.17
2022-09-28T13:55:52.658Z,14.18
2022-09-28T13:58:28.120Z,14.13
2022-09-28T14:01:19.207Z,14.14
2022-09-28T14:04:21.985Z,14.06
2022-09-28T14:07:09.939Z,14.11
2022-09-28T14:09:45.025Z,14.18
2022-09-28T14:12:35.964Z,14.23
2022-09-28T14:15:29.594Z,14.19
2022-09-28T14:18:36.223Z,14.04
2022-09-28T14:21:45.787Z,14.10
2022-09-28T14:24:35.481Z,14.15
2022-09-28T14:27:37.237Z,14.13
2022-09-28T14:30:19.434Z,13.95
2022-09-28T14:32:57.555Z,13.95
2022-09-28T14:35:40.759Z,13.90
2022-09-28T14:38:42.366Z,13.88
2022-09-28T14:41:35.766Z,13.84
2022-09-28T14:44:05.002Z,13.83
2022-09-28T14:46:45.509Z,13.78
2022-09-28T14:49:19.777Z,13.89
2022-09-28T14:51:47.549Z,14.19
2022-09-28T14:54:21.197Z,14.45
2022-09-28T14:56:57.636Z,14.80
2022-09-28T14:59:36.054Z,14.94
2022-09-28T15:02:18.974Z,14.90
2022-09-28T15:05:13.113Z,15.15
2022-09-28T15:07:51.894Z,15.33
2022-09-28T15:10:33.331Z,15.44
2022-09-28T15:13:16.173Z,15.33
2022-09-28T15:15:54.847Z,15.19
2022-09-28T15:18:43.994Z,15.25
2022-09-28T15:21:12.941Z,15.29
2022-09-28T15:23:44.331Z,15.31
2022-09-28T15:26:30.961Z,15.30
2022-09-28T15:29:03.106Z,15.39
2022-09-28T15:31:35.682Z,15.43
2022-09-28T15:34:22.041Z,15.48
2022-09-28T15:36:49.985Z,15.49
2022-09-28T15:39:24.532Z,15.46
2022-09-28T15:41:52.707Z,15.33
2022-09-28T15:44:37.117Z,15.40
2022-09-28T15:47:26.652Z,15.24
2022-09-28T15:49:59.374Z,15.20
2022-09-28T15:52:56.480Z,15.26
2022-09-28T15:55:44.717Z,15.12
2022-09-28T15:58:21.263Z,14.94
2022-09-28T16:00:52.120Z,15.12
2022-09-28T16:03:33.689Z,15.03
2022-09-28T16:06:07.485Z,14.79
2022-09-28T16:08:50.462Z,14.83
2022-09-28T16:11:31.421Z,14.89
2022-09-28T16:14:28.623Z,14.81
2022-09-28T16:16:58.450Z,14.77
2022-09-28T16:19:31.981Z,14.87
2022-09-28T16:22:02.854Z,14.95
2022-09-28T16:24:38.599Z,14.85
2022-09-28T16:27:08.347Z,14.61
2022-09-28T16:29:42.867Z,14.57
2022-09-28T16:32:25.805Z,14.48
2022-09-28T16:35:49.085Z,14.43
2022-09-28T16:38:18.681Z,14.44
2022-09-28T16:40:55.009Z,14.13
2022-09-28T16:43:27.797Z,14.21
2022-09-28T16:45:59.785Z,14.29
2022-09-28T16:48:32.372Z,14.14
2022-09-28T16:51:00.603Z,14.17
2022-09-28T16:53:46.507Z,14.18
2022-09-28T16:56:14.122Z,14.24
2022-09-28T16:58:42.540Z,14.29
2022-09-28T17:01:12.245Z,14.06
2022-09-28T17:03:44.188Z,14.06
2022-09-28T17:06:12.909Z,13.99
2022-09-28T17:08:40.620Z,13.83
2022-09-28T17:11:18.199Z,13.99
2022-09-28T17:13:50.277Z,13.99
2022-09-28T17:16:32.590Z,13.91
2022-09-28T17:19:22.773Z,13.49
2022-09-28T17:21:52.624Z,13.59
2022-09-28T17:24:21.457Z,13.57
2022-09-28T17:26:52.077Z,13.57
2022-09-28T17:29:19.843Z,13.46
2022-09-28T17:31:48.237Z,13.58
2022-09-28T17:34:16.746Z,13.51
2022-09-28T17:36:45.253Z,13.30
2022-09-28T17:39:15.942Z,13.22
2022-09-28T17:41:43.608Z,13.16
2022-09-28T17:44:13.923Z,13.15
2022-09-28T17:46:49.332Z,13.32
2022-09-28T17:49:17.696Z,13.41
2022-09-28T17:51:45.446Z,13.37
2022-09-28T17:54:13.683Z,13.42
2022-09-28T17:56:42.622Z,13.20
2022-09-28T17:59:14.551Z,13.22
2022-09-28T18:01:42.336Z,13.30
2022-09-28T18:04:22.953Z,13.23
2022-09-28T18:06:55.606Z,13.19
2022-09-28T18:09:25.353Z,13.08
2022-09-28T18:12:00.993Z,12.94
2022-09-28T18:14:28.835Z,12.86
2022-09-28T18:16:56.902Z,12.79
2022-09-28T18:19:31.172Z,12.70
2022-09-28T18:22:01.289Z,12.76
2022-09-28T18:24:29.546Z,12.74
2022-09-28T18:26:57.153Z,12.75
2022-09-28T18:29:28.905Z,12.74
2022-09-28T18:31:58.811Z,12.59
2022-09-28T18:34:26.410Z,12.61
2022-09-28T18:36:54.138Z,12.52
2022-09-28T18:39:22.072Z,12.50
2022-09-28T18:41:49.743Z,12.45
2022-09-28T18:44:17.410Z,12.36
2022-09-28T18:46:45.192Z,12.18
2022-09-28T18:49:12.964Z,12.02
2022-09-28T18:51:40.700Z,11.88
2022-09-28T18:54:08.525Z,11.79
2022-09-28T18:56:37.922Z,11.76
2022-09-28T18:59:11.767Z,11.54
2022-09-28T19:01:42.011Z,11.80
2022-09-28T19:04:11.458Z,11.90
2022-09-28T19:06:41.312Z,11.89
2022-09-28T19:09:09.462Z,12.13
2022-09-28T19:11:37.427Z,12.24
2022-09-28T19:14:05.042Z,12.29
2022-09-28T19:16:34.098Z,12.26
2022-09-28T19:19:03.113Z,12.36
2022-09-28T19:21:31.135Z,12.31
2022-09-28T19:24:03.315Z,12.21
2022-09-28T19:26:31.556Z,12.00
2022-09-28T19:28:59.686Z,12.08
2022-09-28T19:31:28.954Z,12.06
2022-09-28T19:33:56.847Z,12.15
2022-09-28T19:36:28.509Z,11.99
2022-09-28T19:38:58.263Z,11.93
2022-09-28T19:41:43.044Z,11.99
2022-09-28T19:44:25.608Z,12.08
2022-09-28T19:47:06.912Z,12.06
2022-09-28T19:49:38.111Z,11.97
2022-09-28T19:52:15.646Z,11.89
2022-09-28T19:54:59.178Z,12.04
2022-09-28T19:57:30.557Z,12.00
2022-09-28T20:00:02.717Z,11.90
2022-09-28T20:02:34.925Z,11.88
2022-09-28T20:05:03.274Z,11.74
2022-09-28T20:07:33.005Z,11.69
2022-09-28T20:10:00.766Z,11.59
2022-09-28T20:12:28.619Z,11.54
2022-09-28T20:14:56.243Z,11.53
2022-09-28T20:17:24.211Z,11.47
2022-09-28T20:19:51.858Z,11.52
2022-09-28T20:22:20.381Z,11.53
2022-09-28T20:24:48.015Z,11.51
2022-09-28T20:27:15.642Z,11.58
2022-09-28T20:29:43.265Z,11.33
2022-09-28T20:32:12.225Z,11.58
2022-09-28T20:34:39.827Z,11.54
2022-09-28T20:37:07.658Z,11.56
2022-09-28T20:39:35.419Z,11.53
2022-09-28T20:42:03.041Z,11.52
2022-09-28T20:44:31.316Z,11.40
2022-09-28T20:46:59.358Z,11.56
2022-09-28T20:49:28.108Z,11.57
2022-09-28T20:51:55.840Z,11.63
2022-09-28T20:54:23.540Z,11.65
2022-09-28T20:56:51.376Z,11.58
2022-09-28T20:59:20.349Z,11.47
2022-09-28T21:01:48.276Z,11.56
2022-09-28T21:04:15.901Z,11.49
2022-09-28T21:06:44.088Z,11.47
2022-09-28T21:09:12.412Z,11.54
2022-09-28T21:11:40.292Z,11.54
2022-09-28T21:14:10.174Z,11.60
2022-09-28T21:16:38.858Z,11.57
2022-09-28T21:19:06.615Z,11.58
2022-09-28T21:21:34.524Z,11.55
2022-09-28T21:24:02.710Z,11.56
2022-09-28T21:26:31.630Z,11.50
2022-09-28T21:29:01.594Z,11.54
2022-09-28T21:31:36.935Z,11.47
2022-09-28T21:34:04.882Z,11.46
2022-09-28T21:36:33.037Z,11.36
2022-09-28T21:39:00.706Z,11.51
2022-09-28T21:41:29.121Z,11.47
2022-09-28T21:43:56.895Z,11.53
2022-09-28T21:46:24.925Z,11.41
2022-09-28T21:48:53.802Z,11.41
2022-09-28T21:51:21.857Z,11.42
2022-09-28T21:53:49.531Z,11.45
2022-09-28T21:56:17.666Z,11.43
2022-09-28T21:58:45.320Z,11.43
2022-09-28T22:01:17.989Z,11.42
2022-09-28T22:03:52.315Z,11.44
2022-09-28T22:06:22.419Z,11.51
2022-09-28T22:08:51.398Z,11.55
2022-09-28T22:11:24.868Z,11.61
2022-09-28T22:13:56.643Z,11.58
2022-09-28T22:16:28.297Z,11.50
2022-09-28T22:18:56.572Z,11.53
2022-09-28T22:21:28.316Z,11.55
2022-09-28T22:24:04.098Z,11.55
2022-09-28T22:26:33.652Z,11.64
2022-09-28T22:29:05.531Z,11.68
2022-09-28T22:31:36.953Z,11.58
2022-09-28T22:34:05.404Z,11.72
2022-09-28T22:36:33.555Z,11.60
2022-09-28T22:39:01.719Z,11.69
2022-09-28T22:41:29.979Z,11.68
2022-09-28T22:43:57.860Z,11.58
2022-09-28T22:46:28.378Z,11.70
2022-09-28T22:48:58.654Z,11.73
2022-09-28T22:51:29.813Z,11.71
2022-09-28T22:53:58.165Z,11.69
2022-09-28T22:56:26.131Z,11.68
2022-09-28T22:58:54.284Z,11.69
2022-09-28T23:01:25.721Z,11.66
2022-09-28T23:03:55.080Z,11.66
2022-09-28T23:06:26.175Z,11.62
2022-09-28T23:08:53.917Z,11.27
2022-09-28T23:11:21.673Z,11.54
2022-09-28T23:13:54.823Z,11.38
2022-09-28T23:16:25.119Z,11.36
2022-09-28T23:18:54.594Z,11.42
2022-09-28T23:21:25.365Z,11.38
2022-09-28T23:23:57.023Z,11.17
2022-09-28T23:26:31.781Z,11.22
2022-09-28T23:29:00.323Z,11.13
2022-09-28T23:31:31.273Z,11.16
2022-09-28T23:34:05.182Z,11.11
2022-09-28T23:36:33.981Z,11.21
2022-09-28T23:39:02.619Z,11.24
2022-09-28T23:41:30.339Z,11.23
2022-09-28T23:43:58.125Z,11.13
2022-09-28T23:46:26.477Z,11.12
2022-09-28T23:48:54.491Z,11.19
2022-09-28T23:51:22.160Z,11.16
2022-09-28T23:53:49.838Z,11.17
2022-09-28T23:56:17.540Z,11.15
2022-09-28T23:58:45.232Z,11.15
